createdAt,value
2019-05-23T00:01:07.899Z,99.90
2019-05-23T00:03:59.397Z,99.90
2019-05-23T00:06:35.816Z,99.90
2019-05-23T00:09:09.431Z,99.90
2019-05-23T00:11:45.566Z,99.90
2019-05-23T00:14:28.287Z,99.90
2019-05-23T00:17:02.044Z,99.90
2019-05-23T00:19:35.615Z,99.90
2019-05-23T00:22:09.222Z,99.90
2019-05-23T00:24:42.830Z,99.90
2019-05-23T00:27:16.527Z,99.90
2019-05-23T00:29:50.903Z,99.90
2019-05-23T00:32:41.196Z,99.90
2019-05-23T00:35:14.935Z,99.90
2019-05-23T00:37:48.756Z,99.90
2019-05-23T00:40:22.563Z,99.90
2019-05-23T00:42:56.343Z,99.90
2019-05-23T00:45:30.202Z,99.90
2019-05-23T00:48:03.869Z,99.90
2019-05-23T00:50:37.655Z,99.90
2019-05-23T00:53:11.364Z,99.90
2019-05-23T00:55:44.958Z,99.90
2019-05-23T00:58:18.555Z,99.90
2019-05-23T01:00:52.907Z,99.90
2019-05-23T01:03:26.584Z,99.90
2019-05-23T01:06:01.327Z,99.90
2019-05-23T01:08:34.910Z,99.90
2019-05-23T01:11:09.231Z,99.90
2019-05-23T01:13:43.724Z,99.90
2019-05-23T01:16:17.505Z,99.90
2019-05-23T01:18:51.245Z,99.90
2019-05-23T01:21:26.539Z,99.90
2019-05-23T01:24:00.642Z,99.90
2019-05-23T01:26:34.349Z,99.90
2019-05-23T01:29:08.830Z,99.90
2019-05-23T01:31:43.419Z,99.90
2019-05-23T01:34:16.980Z,99.90
2019-05-23T01:36:50.823Z,99.90
2019-05-23T01:39:24.482Z,99.90
2019-05-23T01:41:58.183Z,99.90
2019-05-23T01:44:31.902Z,99.90
2019-05-23T01:47:05.599Z,99.90
2019-05-23T01:49:39.193Z,99.90
2019-05-23T01:52:12.916Z,99.90
2019-05-23T01:54:46.621Z,99.90
2019-05-23T01:57:21.118Z,99.90
2019-05-23T02:00:08.822Z,99.90
2019-05-23T02:02:29.360Z,99.90
2019-05-23T02:05:03.083Z,99.90
2019-05-23T02:07:36.683Z,99.90
2019-05-23T02:10:11.246Z,99.90
2019-05-23T02:12:44.878Z,99.90
2019-05-23T02:15:18.667Z,99.90
2019-05-23T02:17:52.257Z,99.90
2019-05-23T02:20:25.906Z,99.90
2019-05-23T02:22:59.508Z,99.90
2019-05-23T02:25:33.895Z,99.90
2019-05-23T02:28:07.621Z,99.90
2019-05-23T02:30:41.315Z,99.90
2019-05-23T02:33:15.053Z,99.90
2019-05-23T02:35:48.755Z,99.90
2019-05-23T02:38:25.748Z,99.90
2019-05-23T02:41:00.160Z,99.90
2019-05-23T02:43:33.836Z,99.90
2019-05-23T02:46:27.247Z,99.90
2019-05-23T02:49:02.894Z,99.90
2019-05-23T02:51:36.546Z,99.90
2019-05-23T02:54:10.360Z,99.90
2019-05-23T02:56:44.900Z,99.90
2019-05-23T02:59:27.007Z,99.90
2019-05-23T03:02:24.838Z,99.90
2019-05-23T03:04:58.550Z,99.90
2019-05-23T03:07:32.153Z,99.90
2019-05-23T03:10:06.576Z,99.90
2019-05-23T03:12:40.323Z,99.90
2019-05-23T03:15:13.955Z,99.90
2019-05-23T03:17:47.649Z,99.90
2019-05-23T03:20:21.330Z,99.90
2019-05-23T03:22:58.403Z,99.90
2019-05-23T03:25:53.680Z,99.90
2019-05-23T03:28:27.403Z,99.90
2019-05-23T03:31:27.037Z,99.90
2019-05-23T03:33:35.686Z,99.90
2019-05-23T03:36:10.113Z,99.90
2019-05-23T03:38:43.868Z,99.90
2019-05-23T03:41:17.500Z,99.90
2019-05-23T03:43:51.171Z,99.90
2019-05-23T03:46:24.919Z,99.90
2019-05-23T03:48:58.672Z,99.90
2019-05-23T03:51:33.048Z,99.90
2019-05-23T03:54:07.490Z,99.90
2019-05-23T03:56:41.997Z,99.90
2019-05-23T03:59:15.517Z,99.90
2019-05-23T04:01:49.874Z,99.90
2019-05-23T04:04:23.578Z,99.90
2019-05-23T04:06:57.215Z,99.90
2019-05-23T04:09:31.645Z,99.90
2019-05-23T04:12:05.266Z,99.90
2019-05-23T04:14:39.591Z,99.90
2019-05-23T04:17:13.274Z,99.90
2019-05-23T04:19:47.779Z,99.90
2019-05-23T04:22:21.435Z,99.90
2019-05-23T04:24:55.116Z,99.90
2019-05-23T04:27:28.687Z,99.90
2019-05-23T04:30:03.141Z,99.90
2019-05-23T04:32:37.645Z,99.90
2019-05-23T04:35:11.473Z,99.90
2019-05-23T04:37:45.962Z,99.90
2019-05-23T04:40:19.593Z,99.90
2019-05-23T04:42:53.302Z,99.90
2019-05-23T04:45:26.899Z,99.90
2019-05-23T04:48:00.522Z,99.90
2019-05-23T04:50:34.321Z,99.90
2019-05-23T04:53:08.002Z,99.90
2019-05-23T04:55:41.739Z,99.90
2019-05-23T04:58:16.220Z,99.90
2019-05-23T05:00:50.556Z,99.90
2019-05-23T05:03:24.240Z,99.90
2019-05-23T05:05:58.058Z,99.90
2019-05-23T05:08:32.047Z,99.90
2019-05-23T05:11:05.802Z,99.90
2019-05-23T05:13:40.341Z,99.90
2019-05-23T05:16:14.092Z,99.90
2019-05-23T05:18:47.703Z,99.90
2019-05-23T05:21:22.028Z,99.90
2019-05-23T05:23:55.623Z,99.90
2019-05-23T05:26:29.592Z,99.90
2019-05-23T05:29:03.945Z,99.90
2019-05-23T05:31:38.385Z,99.90
2019-05-23T05:34:13.372Z,99.90
2019-05-23T05:36:47.032Z,99.90
2019-05-23T05:39:20.821Z,99.90
2019-05-23T05:41:54.669Z,99.90
2019-05-23T05:44:28.287Z,99.90
2019-05-23T05:47:01.984Z,99.90
2019-05-23T05:49:35.708Z,99.90
2019-05-23T05:52:09.443Z,99.90
2019-05-23T05:54:43.192Z,99.90
2019-05-23T05:57:16.991Z,99.90
2019-05-23T05:59:50.559Z,99.90
2019-05-23T06:02:24.221Z,99.90
2019-05-23T06:04:58.799Z,99.90
2019-05-23T06:07:34.308Z,99.90
2019-05-23T06:10:07.936Z,99.90
2019-05-23T06:12:42.460Z,99.90
2019-05-23T06:15:22.258Z,99.90
2019-05-23T06:17:55.948Z,99.90
2019-05-23T06:20:29.699Z,99.90
2019-05-23T06:23:03.382Z,99.90
2019-05-23T06:25:37.859Z,99.90
2019-05-23T06:28:11.825Z,99.90
2019-05-23T06:30:45.425Z,99.90
2019-05-23T06:33:23.842Z,99.90
2019-05-23T06:35:52.945Z,99.90
2019-05-23T06:38:26.538Z,99.90
2019-05-23T06:41:00.338Z,99.90
2019-05-23T06:43:33.959Z,99.90
2019-05-23T06:46:07.654Z,99.90
2019-05-23T06:48:45.528Z,99.90
2019-05-23T06:51:16.126Z,99.90
2019-05-23T06:53:50.730Z,99.90
2019-05-23T06:56:25.135Z,99.90
2019-05-23T06:58:58.992Z,99.90
2019-05-23T07:01:32.663Z,99.90
2019-05-23T07:04:06.464Z,99.90
2019-05-23T07:06:40.060Z,99.90
2019-05-23T07:09:14.492Z,99.90
2019-05-23T07:11:48.190Z,99.90
2019-05-23T07:14:21.775Z,99.90
2019-05-23T07:16:56.314Z,99.90
2019-05-23T07:19:30.108Z,99.90
2019-05-23T07:22:03.892Z,99.90
2019-05-23T07:24:55.031Z,99.90
2019-05-23T07:27:12.163Z,99.90
2019-05-23T07:29:45.778Z,99.90
2019-05-23T07:32:19.594Z,99.90
2019-05-23T07:34:53.185Z,99.90
2019-05-23T07:37:26.972Z,99.90
2019-05-23T07:40:00.612Z,99.90
2019-05-23T07:42:34.398Z,99.90
2019-05-23T07:45:08.034Z,99.90
2019-05-23T07:47:41.637Z,99.90
2019-05-23T07:50:15.597Z,99.90
2019-05-23T07:52:50.015Z,99.90
2019-05-23T07:55:24.631Z,99.90
2019-05-23T07:57:58.746Z,99.90
2019-05-23T08:00:33.243Z,99.90
2019-05-23T08:03:06.902Z,99.90
2019-05-23T08:05:40.588Z,99.90
2019-05-23T08:08:14.949Z,99.90
2019-05-23T08:10:48.683Z,99.90
2019-05-23T08:13:22.282Z,99.90
2019-05-23T08:15:56.015Z,99.90
2019-05-23T08:18:29.800Z,99.90
2019-05-23T08:21:04.337Z,99.90
2019-05-23T08:23:37.918Z,99.90
2019-05-23T08:26:11.533Z,99.90
2019-05-23T08:29:00.930Z,99.90
2019-05-23T08:31:18.828Z,99.90
2019-05-23T08:33:52.436Z,99.90
2019-05-23T08:36:26.957Z,99.90
2019-05-23T08:39:00.467Z,99.90
2019-05-23T08:41:34.317Z,99.90
2019-05-23T08:44:11.394Z,99.90
2019-05-23T08:46:41.859Z,99.90
2019-05-23T08:49:15.566Z,99.90
2019-05-23T08:51:49.870Z,99.90
2019-05-23T08:54:23.401Z,99.90
2019-05-23T08:56:57.121Z,99.90
2019-05-23T08:59:30.902Z,99.90
2019-05-23T09:02:04.648Z,99.90
2019-05-23T09:04:39.236Z,99.90
2019-05-23T09:07:13.205Z,99.90
2019-05-23T09:09:46.927Z,99.90
2019-05-23T09:12:21.568Z,99.90
2019-05-23T09:14:55.320Z,99.90
2019-05-23T09:17:28.975Z,99.90
2019-05-23T09:20:02.878Z,99.90
2019-05-23T09:22:36.640Z,99.90
2019-05-23T09:25:10.406Z,99.90
2019-05-23T09:27:44.063Z,99.90
2019-05-23T09:30:18.629Z,99.90
2019-05-23T09:32:52.418Z,99.90
2019-05-23T09:35:26.057Z,99.90
2019-05-23T09:37:59.770Z,99.90
2019-05-23T09:40:33.460Z,99.90
2019-05-23T09:43:07.941Z,99.90
2019-05-23T09:45:41.774Z,99.90
2019-05-23T09:48:15.564Z,99.50
2019-05-23T09:50:49.180Z,98.20
2019-05-23T09:53:22.756Z,97.20
2019-05-23T09:55:57.246Z,96.40
2019-05-23T09:58:31.639Z,95.30
2019-05-23T10:01:06.120Z,94.00
2019-05-23T10:03:39.779Z,94.00
2019-05-23T10:06:14.264Z,92.60
2019-05-23T10:08:48.688Z,91.80
2019-05-23T10:11:22.373Z,91.70
2019-05-23T10:13:56.085Z,92.00
2019-05-23T10:16:29.866Z,91.50
2019-05-23T10:19:03.533Z,92.20
2019-05-23T10:21:37.349Z,91.70
2019-05-23T10:24:11.059Z,91.30
2019-05-23T10:26:44.822Z,91.70
2019-05-23T10:29:19.279Z,91.50
2019-05-23T10:31:53.117Z,91.50
2019-05-23T10:34:26.777Z,90.50
2019-05-23T10:37:00.598Z,88.50
2019-05-23T10:39:34.389Z,88.60
2019-05-23T10:42:08.451Z,90.50
2019-05-23T10:44:44.878Z,89.90
2019-05-23T10:47:15.737Z,90.40
2019-05-23T10:49:49.515Z,89.50
2019-05-23T10:52:23.177Z,88.30
2019-05-23T10:54:56.774Z,87.80
2019-05-23T10:57:31.204Z,86.90
2019-05-23T11:00:06.665Z,88.70
2019-05-23T11:02:41.137Z,86.20
2019-05-23T11:05:14.992Z,86.20
2019-05-23T11:07:48.610Z,84.90
2019-05-23T11:10:23.158Z,84.60
2019-05-23T11:12:56.711Z,84.60
2019-05-23T11:15:31.144Z,86.20
2019-05-23T11:18:04.760Z,85.50
2019-05-23T11:20:38.452Z,82.10
2019-05-23T11:23:12.123Z,79.60
2019-05-23T11:25:46.679Z,83.80
2019-05-23T11:28:21.078Z,81.10
2019-05-23T11:30:54.578Z,81.00
2019-05-23T11:33:28.903Z,82.10
2019-05-23T11:36:02.654Z,82.10
2019-05-23T11:38:36.418Z,83.80
2019-05-23T11:41:11.731Z,87.30
2019-05-23T11:43:45.530Z,90.20
2019-05-23T11:46:19.795Z,89.60
2019-05-23T11:48:53.579Z,90.10
2019-05-23T11:51:28.301Z,90.90
2019-05-23T11:54:08.289Z,90.80
2019-05-23T11:56:35.387Z,90.50
2019-05-23T11:59:09.071Z,90.50
2019-05-23T12:01:48.415Z,90.30
2019-05-23T12:04:22.852Z,90.90
2019-05-23T12:06:56.931Z,90.80
2019-05-23T12:09:31.328Z,92.70
2019-05-23T12:12:04.997Z,92.80
2019-05-23T12:14:38.697Z,91.00
2019-05-23T12:17:12.436Z,91.80
2019-05-23T12:19:46.071Z,92.70
2019-05-23T12:22:19.830Z,92.20
2019-05-23T12:24:53.576Z,92.50
2019-05-23T12:27:27.221Z,91.60
2019-05-23T12:30:00.843Z,92.70
2019-05-23T12:32:34.620Z,91.70
2019-05-23T12:35:11.235Z,91.60
2019-05-23T12:37:41.940Z,91.60
2019-05-23T12:40:15.648Z,90.50
2019-05-23T12:42:49.272Z,90.80
2019-05-23T12:45:22.899Z,91.50
2019-05-23T12:48:00.175Z,91.40
2019-05-23T12:50:34.628Z,91.30
2019-05-23T12:53:08.245Z,91.20
2019-05-23T12:55:42.031Z,92.40
2019-05-23T12:58:15.817Z,92.00
2019-05-23T13:00:49.676Z,91.30
2019-05-23T13:03:23.156Z,92.40
2019-05-23T13:05:57.238Z,92.10
2019-05-23T13:08:30.793Z,92.00
2019-05-23T13:11:04.454Z,92.60
2019-05-23T13:13:38.009Z,92.60
2019-05-23T13:16:12.527Z,90.60
2019-05-23T13:18:46.129Z,90.60
2019-05-23T13:21:19.704Z,91.00
2019-05-23T13:23:53.399Z,92.20
2019-05-23T13:26:27.016Z,92.40
2019-05-23T13:29:01.638Z,93.10
2019-05-23T13:31:35.227Z,93.10
2019-05-23T13:34:09.792Z,93.10
2019-05-23T13:36:43.566Z,93.00
2019-05-23T13:39:17.271Z,92.60
2019-05-23T13:41:50.956Z,92.00
2019-05-23T13:44:33.919Z,92.40
2019-05-23T13:46:59.092Z,92.40
2019-05-23T13:49:33.105Z,92.50
2019-05-23T13:52:06.816Z,91.90
2019-05-23T13:54:40.459Z,91.20
2019-05-23T13:57:14.133Z,92.00
2019-05-23T13:59:48.229Z,91.80
2019-05-23T14:02:21.782Z,92.30
2019-05-23T14:04:55.633Z,91.90
2019-05-23T14:07:30.263Z,92.00
2019-05-23T14:10:06.189Z,92.10
2019-05-23T14:12:40.690Z,92.70
2019-05-23T14:15:14.412Z,92.80
2019-05-23T14:17:48.204Z,92.60
2019-05-23T14:20:21.879Z,92.40
2019-05-23T14:23:00.910Z,92.00
2019-05-23T14:25:34.757Z,91.80
2019-05-23T14:28:08.517Z,91.70
2019-05-23T14:30:42.981Z,92.00
2019-05-23T14:33:22.362Z,92.80
2019-05-23T14:35:56.774Z,90.90
2019-05-23T14:38:31.589Z,92.10
2019-05-23T14:41:05.659Z,91.90
2019-05-23T14:43:40.260Z,91.50
2019-05-23T14:46:15.323Z,91.90
2019-05-23T14:48:50.738Z,91.90
2019-05-23T14:51:24.297Z,91.70
2019-05-23T14:54:02.254Z,91.40
2019-05-23T14:56:37.236Z,92.10
2019-05-23T14:59:10.966Z,92.10
2019-05-23T15:01:45.534Z,91.50
2019-05-23T15:04:19.209Z,92.40
2019-05-23T15:06:52.829Z,93.00
2019-05-23T15:09:27.307Z,92.10
2019-05-23T15:12:00.859Z,92.10
2019-05-23T15:14:34.539Z,92.10
2019-05-23T15:17:08.352Z,93.40
2019-05-23T15:19:45.370Z,92.40
2019-05-23T15:22:16.645Z,92.40
2019-05-23T15:24:50.266Z,92.50
2019-05-23T15:27:24.074Z,92.90
2019-05-23T15:29:57.689Z,92.20
2019-05-23T15:32:31.361Z,92.20
2019-05-23T15:35:04.984Z,91.70
2019-05-23T15:37:39.484Z,92.50
2019-05-23T15:40:13.083Z,92.10
2019-05-23T15:42:46.841Z,93.80
2019-05-23T15:45:21.526Z,93.00
2019-05-23T15:47:55.323Z,93.70
2019-05-23T15:50:29.820Z,94.10
2019-05-23T15:53:13.349Z,93.70
2019-05-23T15:55:48.944Z,93.30
2019-05-23T15:58:23.461Z,93.70
2019-05-23T16:00:59.959Z,93.70
2019-05-23T16:03:42.712Z,94.10
2019-05-23T16:06:18.904Z,94.50
2019-05-23T16:08:52.653Z,94.30
2019-05-23T16:11:26.349Z,94.70
2019-05-23T16:14:00.042Z,95.00
2019-05-23T16:16:33.740Z,94.90
2019-05-23T16:19:07.701Z,94.80
2019-05-23T16:21:41.335Z,94.20
2019-05-23T16:24:15.068Z,93.90
2019-05-23T16:26:49.767Z,93.90
2019-05-23T16:29:23.590Z,93.70
2019-05-23T16:31:57.307Z,94.20
2019-05-23T16:34:30.897Z,94.40
2019-05-23T16:37:04.713Z,94.00
2019-05-23T16:39:47.291Z,94.10
2019-05-23T16:42:12.230Z,94.50
2019-05-23T16:44:48.446Z,94.70
2019-05-23T16:47:22.196Z,94.40
2019-05-23T16:49:56.087Z,94.20
2019-05-23T16:52:29.804Z,94.30
2019-05-23T16:55:03.381Z,94.70
2019-05-23T16:57:37.134Z,94.30
2019-05-23T17:00:30.399Z,94.90
2019-05-23T17:03:19.750Z,94.90
2019-05-23T17:06:12.106Z,94.70
2019-05-23T17:08:45.863Z,95.00
2019-05-23T17:11:24.633Z,94.90
2019-05-23T17:14:14.051Z,95.10
2019-05-23T17:17:06.547Z,94.80
2019-05-23T17:19:42.146Z,94.70
2019-05-23T17:22:34.563Z,94.10
2019-05-23T17:25:23.916Z,94.50
2019-05-23T17:28:03.342Z,94.60
2019-05-23T17:30:39.604Z,95.20
2019-05-23T17:33:13.186Z,95.20
2019-05-23T17:35:47.606Z,95.90
2019-05-23T17:38:21.495Z,95.90
2019-05-23T17:40:55.281Z,95.50
2019-05-23T17:43:28.958Z,95.80
2019-05-23T17:46:02.586Z,96.30
2019-05-23T17:48:36.423Z,96.80
2019-05-23T17:51:10.911Z,97.10
2019-05-23T17:53:44.757Z,97.10
2019-05-23T17:56:19.273Z,99.00
2019-05-23T17:58:53.084Z,99.00
2019-05-23T18:01:26.741Z,99.50
2019-05-23T18:04:00.492Z,99.60
2019-05-23T18:06:34.207Z,99.90
2019-05-23T18:09:07.788Z,99.90
2019-05-23T18:11:41.446Z,99.90
2019-05-23T18:14:15.702Z,99.90
2019-05-23T18:16:50.297Z,99.90
2019-05-23T18:19:23.920Z,99.90
2019-05-23T18:21:57.534Z,99.90
2019-05-23T18:24:32.040Z,99.90
2019-05-23T18:27:05.961Z,99.90
2019-05-23T18:29:39.662Z,99.90
2019-05-23T18:32:13.456Z,99.90
2019-05-23T18:34:47.198Z,99.90
2019-05-23T18:37:21.466Z,99.90
2019-05-23T18:39:55.803Z,99.90
2019-05-23T18:42:29.550Z,99.90
2019-05-23T18:45:03.224Z,99.90
2019-05-23T18:47:38.341Z,99.90
2019-05-23T18:50:12.041Z,99.90
2019-05-23T18:52:45.810Z,99.90
2019-05-23T18:55:19.508Z,99.90
2019-05-23T18:57:53.353Z,99.90
2019-05-23T19:14:10.401Z,99.90
2019-05-23T19:16:44.081Z,99.90
2019-05-23T19:19:17.721Z,99.90
2019-05-23T19:21:51.313Z,99.90
2019-05-23T19:24:24.976Z,99.90
2019-05-23T19:26:58.662Z,99.90
2019-05-23T19:29:32.328Z,99.90
2019-05-23T19:32:06.133Z,99.90
2019-05-23T19:34:40.451Z,99.90
2019-05-23T19:37:14.066Z,99.90
2019-05-23T19:39:47.780Z,99.90
2019-05-23T19:42:21.420Z,99.90
2019-05-23T19:44:55.024Z,99.90
2019-05-23T19:47:28.593Z,99.90
2019-05-23T19:50:02.199Z,99.90
2019-05-23T19:52:35.846Z,99.90
2019-05-23T19:55:10.195Z,99.90
2019-05-23T19:57:43.768Z,99.90
2019-05-23T20:00:17.368Z,99.90
2019-05-23T20:03:03.545Z,99.90
2019-05-23T20:05:34.176Z,99.90
2019-05-23T20:08:07.980Z,99.90
2019-05-23T20:10:41.691Z,99.90
2019-05-23T20:13:18.422Z,99.90
2019-05-23T20:15:49.021Z,99.90
2019-05-23T20:18:22.604Z,99.90
2019-05-23T20:20:56.281Z,99.90
2019-05-23T20:23:29.870Z,99.90
2019-05-23T20:26:07.161Z,99.90
2019-05-23T20:28:40.135Z,99.90
2019-05-23T20:31:11.551Z,99.90
2019-05-23T20:33:45.937Z,99.90
2019-05-23T20:36:19.705Z,99.90
2019-05-23T20:38:53.461Z,99.90
2019-05-23T20:41:26.969Z,99.90
2019-05-23T20:44:00.752Z,99.90
2019-05-23T20:46:34.531Z,99.90
2019-05-23T20:49:08.296Z,99.90
2019-05-23T20:51:42.668Z,99.90
2019-05-23T20:54:16.308Z,99.90
2019-05-23T20:56:49.916Z,99.90
2019-05-23T20:59:23.483Z,99.90
2019-05-23T21:01:57.016Z,99.90
2019-05-23T21:04:30.864Z,99.90
2019-05-23T21:07:04.607Z,99.90
2019-05-23T21:09:38.235Z,99.90
2019-05-23T21:12:28.367Z,99.90
2019-05-23T21:14:46.436Z,99.90
2019-05-23T21:17:20.040Z,99.90
2019-05-23T21:19:53.804Z,99.90
2019-05-23T21:22:28.801Z,99.90
2019-05-23T21:25:02.501Z,99.90
2019-05-23T21:27:36.312Z,99.90
2019-05-23T21:30:09.892Z,99.90
2019-05-23T21:32:43.714Z,99.90
2019-05-23T21:35:17.302Z,99.90
2019-05-23T21:37:50.767Z,99.90
2019-05-23T21:40:43.264Z,99.90
2019-05-23T21:43:16.843Z,99.90
2019-05-23T21:45:51.143Z,99.90
2019-05-23T21:48:24.739Z,99.90
2019-05-23T21:50:58.446Z,99.90
2019-05-23T21:53:32.752Z,99.90
2019-05-23T21:56:07.081Z,99.90
2019-05-23T21:58:40.827Z,99.90
2019-05-23T22:14:36.646Z,99.90
2019-05-23T22:17:10.342Z,99.90
2019-05-23T22:19:43.984Z,99.90
2019-05-23T22:22:17.582Z,99.90
2019-05-23T22:24:51.949Z,99.90
2019-05-23T22:27:26.355Z,99.90
2019-05-23T22:30:00.036Z,99.90
2019-05-23T22:32:33.670Z,99.90
2019-05-23T22:35:07.228Z,99.90
2019-05-23T22:37:41.756Z,99.90
2019-05-23T22:40:15.508Z,99.90
2019-05-23T22:42:49.290Z,99.90
2019-05-23T22:45:22.884Z,99.90
2019-05-23T22:47:56.693Z,99.90
2019-05-23T22:50:30.239Z,99.90
2019-05-23T22:53:03.895Z,99.90
2019-05-23T22:55:37.702Z,99.90
2019-05-23T22:58:11.318Z,99.90
2019-05-23T23:00:45.798Z,99.90
2019-05-23T23:03:19.486Z,99.90
2019-05-23T23:05:53.231Z,99.90
2019-05-23T23:08:26.866Z,99.90
2019-05-23T23:11:00.393Z,99.90
2019-05-23T23:13:38.825Z,99.90
2019-05-23T23:16:07.754Z,99.90
2019-05-23T23:18:41.361Z,99.90
2019-05-23T23:21:14.951Z,99.90
2019-05-23T23:23:48.539Z,99.90
2019-05-23T23:26:22.951Z,99.90
2019-05-23T23:28:56.677Z,99.90
2019-05-23T23:31:30.497Z,99.90
2019-05-23T23:34:04.063Z,99.90
2019-05-23T23:36:37.927Z,99.90
2019-05-23T23:39:11.756Z,99.90
2019-05-23T23:41:45.511Z,99.90
2019-05-23T23:44:19.214Z,99.90
2019-05-23T23:46:58.654Z,99.90
2019-05-23T23:49:38.044Z,99.90
2019-05-23T23:52:17.377Z,99.90
2019-05-23T23:54:56.651Z,99.90
2019-05-23T23:57:36.042Z,99.90
